Tiempo atmosférico en la estación meteorológica de Binissalem, Illes Balears (105 m.)

Fecha
DESCASC
Temp. máxima en grados centígrados (hora)
DESCASC
Temp. mínima en grados centígrados (hora)
DESCASC
Temp. media en grados centígrados
DESCASC
Racha de viento máxima en m/sg (hora)
DESCASC
Velocidad máxima media en intervalos de 10 minutos(hora)
DESCASC
Precipitaciones diarias en mm
DESCASC
Precipitaciones de 00:00 a 06:00 en mm
DESCASC
Precipitaciones de 06:00 a 12:00 en mm
DESCASC
Precipitaciones de 12:00 a 18:00 en mm
DESCASC
Precipitaciones de 18:00 a 24:00 en mm
DESCASC
21-09-2017 27 (15:40) 14.7 (06:20) 20.8 6.39 (17:20) 3.89 (16:40) 0 0 0 0 0
20-09-2017 24.2 (16:20) 12.5 (06:50) 18.4 8.33 (18:30) 5 (16:00) 0 0 0 0 0
19-09-2017 24.5 (15:00) 15.3 (05:00) 19.9 6.39 (14:00) 3.89 (17:20) 0 0 0 0 0
18-09-2017 26.4 (15:00) 16.6 (04:20) 21.5 12.5 (12:30) 8.06 (12:50) 0.8 0 0.8 0 0
17-09-2017 24.3 (16:00) 11 (00:00) 17.6 8.61 (15:00) 5.28 (17:30) 0.2 0 0.2 0 0
16-09-2017 19.5 (18:30) 13.9 (00:00) 16.7 9.72 (00:10) 5.56 (01:10) 16.8 15.8 0 1 0
15-09-2017 21.5 (10:50) 15 (00:00) 18.3 18.89 (15:10) 8.61 (15:00) 44.4 0 0 34.6 9.8
14-09-2017 28.6 (17:20) 16.6 (00:00) 22.6 12.78 (21:10) 6.94 (21:10) 0 0 0 0 0
13-09-2017 28.1 (14:20) 15.7 (00:00) 21.9 8.33 (17:50) 5.56 (16:10) 0 0 0 0 0
12-09-2017 25.1 (13:20) 16.6 (00:00) 20.9 8.61 (12:20) 6.11 (13:40) 0 0 0 0 0
11-09-2017 29.3 (14:30) 18.6 (00:00) 23.9 13.06 (15:30) 8.33 (15:30) 0 0 0 0 0
10-09-2017 22.8 (17:30) 14.8 (00:00) 18.8 9.72 (02:20) 5 (02:30) 20.8 13.4 6.6 0.8 0
09-09-2017 28.4 (15:10) 17.7 (00:00) 23.1 14.72 (20:10) 9.17 (20:10) 1.6 0 0 0 1.6
08-09-2017 28.5 (17:40) 17.7 (00:00) 23.1 10.56 (17:00) 5.83 (16:20) 0 0 0 0 0
07-09-2017 25.6 (13:40) 17.8 (00:00) 21.7 9.72 (08:50) 4.17 (15:00) 16.4 0 10 6.4 0
06-09-2017 30.3 (13:10) 17.1 (00:00) 23.7 10.83 (16:10) 7.5 (16:10) 14.6 0 0 14.6 0
05-09-2017 31.5 (14:50) 17.8 (00:00) 24.6 9.17 (13:30) 5.56 (15:10) 0 0 0 0 0
04-09-2017 30.9 (15:30) 19 (00:00) 24.9 8.06 (18:10) 5 (17:40) 0 0 0 0 0
03-09-2017 28 (15:00) 14.6 (00:00) 21.3 10.28 (12:40) 6.67 (15:50) 0 0 0 0 0
02-09-2017 28.8 (15:20) 17.6 (00:00) 23.2 8.61 (18:10) 4.72 (17:20) 0 0 0 0 0
01-09-2017 27.9 (15:50) 20.1 (00:00) 24 11.11 (12:30) 6.39 (14:30) 0 0 0 0 0
31-08-2017 30.5 (14:30) 21.3 (00:00) 25.9 11.94 (18:20) 7.5 (18:10) 0.8 0.4 0.4 0 0
30-08-2017 32.8 (15:30) 23 (00:00) 27.9 9.17 (03:50) 5.83 (04:30) 0 0 0 0 0
29-08-2017 35 (15:00) 22.6 (00:00) 28.8 8.06 (13:50) 4.17 (14:10) 0 0 0 0 0
28-08-2017 33.5 (14:30) 21.9 (00:00) 27.7 11.11 (17:30) 6.94 (17:30) 0 0 0 0 0
27-08-2017 35.7 (14:50) 21.2 (00:00) 28.5 11.39 (15:10) 4.44 (15:30) 0 0 0 0 0
26-08-2017 35 (16:10) 19.7 (00:00) 27.4 7.22 (17:20) 4.17 (16:40) 0 0 0 0 0
25-08-2017 34.7 (15:20) 17.1 (00:00) 25.9 7.78 (18:10) 4.17 (18:10) 0 0 0 0 0
24-08-2017 34.9 (15:40) 16.6 (00:00) 25.8 7.22 (15:30) 4.17 (18:20) 0 0 0 0 0

Gráficas

Temp. máximas Temp. mínimas Temp. medias Precipitaciones Rachas de viento máximas Velocidades máximas media en intervalos de 10 minutos

Datos horarios

Fecha y hora oficial Temperatura (ºC) Velocidad del viento (km/h) Dirección del viento Racha (km/h) Dirección de racha Precipitación (mm) Presión (hPa) Tendencia (hPa) Humedad (%)
2017-09-22 23:00:00 19 7 Norte 10 Norte 0 -- -- 86
2017-09-22 22:00:00 19.6 5 Nordeste 9 Nordeste 0 -- -- 83
2017-09-22 21:00:00 20.7 5 Nordeste 9 Nordeste 0 -- -- 79
2017-09-22 20:00:00 21.9 5 Nordeste 18 Nordeste 0 -- -- 73
2017-09-22 19:00:00 23.5 12 Nordeste 23 Nordeste 0 -- -- 67
2017-09-22 18:00:00 24.2 13 Nordeste 28 Nordeste 0 -- -- 64
2017-09-22 17:00:00 26 12 Este 26 Este 0 -- -- 56
2017-09-22 16:00:00 26.4 10 Nordeste 22 Este 0 -- -- 54
2017-09-22 15:00:00 25.7 9 Nordeste 27 Nordeste 0 -- -- 57
2017-09-22 14:00:00 24.8 9 Nordeste 17 Nordeste 0 -- -- 58
2017-09-22 13:00:00 24.6 9 Este 18 Sudeste 0 -- -- 60
2017-09-22 12:00:00 23.7 8 Nordeste 15 Nordeste 0 -- -- 67
2017-09-22 11:00:00 23.3 10 Nordeste 18 Este 0 -- -- 68
2017-09-22 10:00:00 21.8 7 Este 15 Este 0 -- -- 77
2017-09-22 09:00:00 17.1 0 Calma 5 Sudeste 0 -- -- 93
2017-09-22 08:00:00 14.7 0 Calma 5 Norte 0 -- -- 92
2017-09-22 07:00:00 14.7 3 Norte 6 Norte 0 -- -- 90
2017-09-22 06:00:00 15.5 0 Calma 9 Norte 0 -- -- 89
2017-09-22 05:00:00 16.9 4 Norte 9 Norte 0 -- -- 89
2017-09-22 04:00:00 17 6 Norte 9 Noroeste 0 -- -- 88
2017-09-22 03:00:00 17.2 6 Norte 10 Norte 0 -- -- 86
2017-09-22 02:00:00 17.5 5 Norte 9 Norte 0 -- -- 85
2017-09-22 01:00:00 17.8 6 Norte 11 Norte 0 -- -- 83
2017-09-22 00:00:00 18.5 5 Norte 11 Norte 0 -- -- 81
2017-09-21 23:00:00 18.6 5 Norte 9 Norte 0 -- -- 80
2017-09-21 22:00:00 19.2 4 Norte 5 Norte 0 -- -- 78
2017-09-21 21:00:00 21 2 Este 12 Sur 0 -- -- 68
2017-09-21 20:00:00 22.5 8 Sur 15 Sudeste 0 -- -- 63
2017-09-21 19:00:00 23.7 9 Sur 15 Sudeste 0 -- -- 59
2017-09-21 18:00:00 25.8 10 Oeste 23 Sudoeste 0 -- -- 56
2017-09-21 17:00:00 26.4 11 Sudoeste 22 Sudoeste 0 -- -- 55
2017-09-21 16:00:00 26.9 12 Sudoeste 22 Oeste 0 -- -- 54
2017-09-21 15:00:00 25.3 4 Sudoeste 18 Sudoeste 0 -- -- 54
2017-09-21 14:00:00 25.9 9 Sudoeste 22 Sudoeste 0 -- -- 53
2017-09-21 13:00:00 25.3 7 Sudeste 18 Sur 0 -- -- 56
2017-09-21 12:00:00 24 8 Sur 14 Sur 0 -- -- 61
2017-09-21 11:00:00 23.3 7 Sur 13 Sur 0 -- -- 66
2017-09-21 10:00:00 21.2 3 Sur 5 Sur 0 -- -- 85
2017-09-21 09:00:00 17.6 0 Calma 4 Sudoeste 0 -- -- 95
2017-09-21 08:00:00 14.9 0 Calma 4 Noroeste 0 -- -- 94
2017-09-21 07:00:00 14.9 2 Oeste 4 Oeste 0 -- -- 93
2017-09-21 06:00:00 15 2 Oeste 3 Sudoeste 0 -- -- 93
2017-09-21 05:00:00 15.5 2 Oeste 4 Oeste 0 -- -- 92
2017-09-21 04:00:00 16.2 0 Calma 3 Noroeste 0 -- -- 92
2017-09-21 03:00:00 16.2 2 Noroeste 3 Norte 0 -- -- 92
2017-09-21 02:00:00 16 3 Sudoeste 4 Noroeste 0 -- -- 91
2017-09-21 01:00:00 16.1 3 Noroeste 5 Noroeste 0 -- -- 90
2017-09-21 00:00:00 16.6 3 Noroeste 4 Norte 0 -- -- 88
2017-09-20 23:00:00 17.2 0 Calma 5 Sudoeste 0 -- -- 85
2017-09-20 22:00:00 18.7 5 Sur 8 Oeste 0 -- -- 79
2017-09-20 21:00:00 19.7 4 Oeste 12 Sudoeste 0 -- -- 75
2017-09-20 20:00:00 21 8 Sudoeste 21 Sudoeste 0 -- -- 69
2017-09-20 19:00:00 22.2 13 Sudoeste 30 Sudoeste 0 -- -- 64
2017-09-20 18:00:00 22.5 10 Sudoeste 25 Sudoeste 0 -- -- 64
2017-09-20 17:00:00 22.8 17 Sudoeste 27 Sudoeste 0 -- -- 61
2017-09-20 16:00:00 23.2 18 Sudoeste 25 Sudoeste 0 -- -- 60
2017-09-20 15:00:00 23.1 13 Sudoeste 20 Sudoeste 0 -- -- 57
2017-09-20 14:00:00 22.5 11 Oeste 18 Sudoeste 0 -- -- 58
2017-09-20 13:00:00 21.7 6 Oeste 15 Oeste 0 -- -- 59
2017-09-20 12:00:00 21.4 10 Sudoeste 15 Sudoeste 0 -- -- 59
2017-09-20 11:00:00 20.1 4 Oeste 6 Oeste 0 -- -- 65
2017-09-20 10:00:00 16.8 0 Calma 4 Noroeste 0 -- -- 91
2017-09-20 09:00:00 14.9 2 Noroeste 5 Sudoeste 0 -- -- 93
2017-09-20 08:00:00 13.4 2 Oeste 5 Sudoeste 0 -- -- 92
2017-09-20 07:00:00 12.5 2 Sudoeste 7 Noroeste 0 -- -- 91
2017-09-20 06:00:00 12.9 5 Noroeste 7 Noroeste 0 -- -- 91
2017-09-20 05:00:00 13.1 3 Sudoeste 8 Noroeste 0 -- -- 89
2017-09-20 04:00:00 13.8 5 Noroeste 8 Noroeste 0 -- -- 88
2017-09-20 03:00:00 14.5 7 Noroeste 9 Noroeste 0 -- -- 87
2017-09-20 02:00:00 14.8 5 Norte 8 Norte 0 -- -- 86
2017-09-20 01:00:00 15.3 4 Norte 8 Norte 0 -- -- 84
2017-09-20 00:00:00 16.1 3 Norte 9 Norte 0 -- -- 81
2017-09-19 23:00:00 16.1 5 Norte 10 Norte 0 -- -- 80
2017-09-19 22:00:00 16.8 4 Nordeste 8 Nordeste 0 -- -- 77
2017-09-19 21:00:00 17.4 5 Norte 8 Este 0 -- -- 75
2017-09-19 20:00:00 19.5 5 Este 19 Este 0 -- -- 65
2017-09-19 19:00:00 21.1 9 Este 22 Este 0 -- -- 60
2017-09-19 18:00:00 21.4 12 Este 22 Este 0 -- -- 55
2017-09-19 17:00:00 22.2 14 Este 23 Nordeste 0 -- -- 62
2017-09-19 16:00:00 24 6 Noroeste 22 Noroeste 0 -- -- 44
2017-09-19 15:00:00 24.5 10 Noroeste 22 Noroeste 0 -- -- 47
2017-09-19 14:00:00 24.2 12 Noroeste 23 Oeste 0 -- -- 48
2017-09-19 13:00:00 23.4 10 Noroeste 21 Norte 0 -- -- 50
2017-09-19 12:00:00 22 4 Sur 16 Sudoeste 0 -- -- 62
2017-09-19 11:00:00 21.7 5 Sudoeste 16 Sur 0 -- -- 64
2017-09-19 10:00:00 20.3 5 Sudoeste 11 Sudoeste 0 -- -- 70
2017-09-19 09:00:00 17.8 0 Calma 8 Oeste 0 -- -- 92
2017-09-19 08:00:00 16 6 Oeste 8 Oeste 0 -- -- 93
2017-09-19 07:00:00 16 0 Calma 5 Noroeste 0 -- -- 93
2017-09-19 06:00:00 15.6 3 Sudoeste 4 Sudoeste 0 -- -- 93
2017-09-19 05:00:00 15.3 3 Noroeste 5 Norte 0 -- -- 92
2017-09-19 04:00:00 15.8 0 Calma 3 Sudeste 0 -- -- 91
2017-09-19 03:00:00 16.5 2 Sur 5 Sur 0 -- -- 90
2017-09-19 02:00:00 16.9 0 Calma 4 Sur 0 -- -- 89
2017-09-19 01:00:00 17.1 3 Noroeste 14 Nordeste 0 -- -- 87
2017-09-19 00:00:00 17.8 7 Nordeste 13 Nordeste 0 -- -- 87
2017-09-18 23:00:00 18 6 Nordeste 20 Nordeste 0 -- -- 86
2017-09-18 22:00:00 18.3 9 Nordeste 18 Nordeste 0 -- -- 86
2017-09-18 21:00:00 18.9 10 Este 23 Nordeste 0 -- -- 83
2017-09-18 20:00:00 20 12 Este 32 Este 0 -- -- 79
2017-09-18 19:00:00 21.5 21 Nordeste 39 Este 0 -- -- 72
2017-09-18 18:00:00 25.4 14 Norte 32 Norte 0 -- -- 52
2017-09-18 17:00:00 25.9 16 Noroeste 31 Oeste 0 -- -- 50
2017-09-18 16:00:00 26.2 19 Oeste 40 Oeste 0 -- -- 53
2017-09-18 15:00:00 26.4 21 Oeste 39 Sudoeste 0 -- -- 54
2017-09-18 14:00:00 25.5 25 Sudoeste 39 Sudoeste 0 -- -- 68
2017-09-18 13:00:00 25.3 28 Sudoeste 45 Sudoeste 0 -- -- 68
2017-09-18 12:00:00 24.8 23 Sudoeste 41 Sudoeste 0 -- -- 68
2017-09-18 11:00:00 23.8 23 Sudoeste 37 Oeste 0 -- -- 79
2017-09-18 10:00:00 22.9 20 Sudoeste 31 Sudoeste 0 -- -- 86
2017-09-18 09:00:00 20.1 9 Sudoeste 17 Sudoeste 0.8 -- -- 94
2017-09-18 08:00:00 17.4 2 Oeste 6 Sur 0 -- -- 95
2017-09-18 07:00:00 17 0 Calma 11 Oeste 0 -- -- 94
2017-09-18 06:00:00 16.9 5 Sudoeste 9 Sudoeste 0 -- -- 94
2017-09-18 05:00:00 16.7 0 Calma 4 Este 0 -- -- 94
2017-09-18 04:00:00 16.8 0 Calma 4 Sur 0 -- -- 93
2017-09-18 03:00:00 17.2 0 Calma 5 Sudeste 0 -- -- 92
2017-09-18 02:00:00 17.6 2 Oeste 5 Noroeste 0 -- -- 92
2017-09-18 01:00:00 17.7 2 Oeste 4 Oeste 0 -- -- 91
2017-09-18 00:00:00 17.6 0 Calma 4 Este 0 -- -- 90
2017-09-17 23:00:00 17.6 3 Sudoeste 6 Sur 0 -- -- 88
2017-09-17 22:00:00 17.9 7 Noroeste 9 Noroeste 0 -- -- 86
2017-09-17 21:00:00 19.5 6 Oeste 11 Sudoeste 0 -- -- 79
2017-09-17 20:00:00 20.7 6 Sudoeste 21 Sudoeste 0 -- -- 72
2017-09-17 19:00:00 22.6 13 Sudoeste 26 Sudoeste 0 -- -- 64
2017-09-17 18:00:00 23.5 15 Sudoeste 31 Sudoeste 0 -- -- 59
2017-09-17 17:00:00 23.9 17 Sudoeste 27 Sur 0 -- -- 56
2017-09-17 16:00:00 24.3 15 Sudoeste 30 Sudoeste 0 -- -- 56
2017-09-17 15:00:00 23.8 17 Sudoeste 31 Oeste 0 -- -- 54
2017-09-17 14:00:00 23.8 14 Sudoeste 28 Sudoeste 0 -- -- 55
2017-09-17 13:00:00 23.1 14 Sudoeste 24 Sudoeste 0 -- -- 53
2017-09-17 12:00:00 22.4 17 Sudoeste 23 Oeste 0 -- -- 56
2017-09-17 11:00:00 21.1 10 Sudoeste 19 Sudoeste 0 -- -- 63
2017-09-17 10:00:00 17.9 3 Sur 6 Sur 0 -- -- 92
2017-09-17 09:00:00 14 6 Sur 9 Sur 0 -- -- 95
2017-09-17 08:00:00 11.6 4 Oeste 9 Oeste 0 -- -- 96
2017-09-17 07:00:00 11.5 7 Noroeste 14 Sur 0.2 -- -- 96
2017-09-17 06:00:00 11.3 0 Calma 6 Norte 0 -- -- 95
2017-09-17 05:00:00 11.9 2 Norte 6 Sur 0 -- -- 95
2017-09-17 04:00:00 12.6 0 Calma 12 Sudoeste 0 -- -- 94
2017-09-17 03:00:00 12.9 9 Sudoeste 12 Sudoeste 0 -- -- 94
2017-09-17 02:00:00 13.3 9 Oeste 11 Oeste 0 -- -- 94
2017-09-17 01:00:00 13.5 6 Sudoeste 9 Sudoeste 0 -- -- 93
2017-09-17 00:00:00 13.9 6 Sudoeste 9 Oeste 0 -- -- 92
2017-09-16 23:00:00 14.5 6 Oeste 9 Oeste 0 -- -- 91
2017-09-16 22:00:00 15.1 6 Noroeste 8 Noroeste 0 -- -- 90
2017-09-16 21:00:00 16.3 3 Noroeste 5 Noroeste 0 -- -- 86
2017-09-16 20:00:00 18 0 Calma 8 Este 0 -- -- 77
2017-09-16 19:00:00 19.2 4 Este 9 Sudeste 0 -- -- 71
2017-09-16 18:00:00 19.1 4 Nordeste 15 Este 0 -- -- 73
2017-09-16 17:00:00 18.5 9 Nordeste 26 Nordeste 0 -- -- 80
2017-09-16 16:00:00 18.4 16 Nordeste 25 Nordeste 0 -- -- 82
2017-09-16 15:00:00 18 4 Este 14 Este 0.2 -- -- 85
2017-09-16 14:00:00 18.1 7 Este 13 Este 0.6 -- -- 88
2017-09-16 13:00:00 17.9 10 Sudeste 17 Sudeste 0.2 -- -- 84
2017-09-16 12:00:00 19.1 7 Este 13 Este 0 -- -- 77
2017-09-16 11:00:00 18.3 7 Este 19 Nordeste 0 -- -- 80
2017-09-16 10:00:00 17 4 Este 16 Este 0 -- -- 83
2017-09-16 09:00:00 16 5 Este 15 Norte 0 -- -- 84
2017-09-16 08:00:00 15.3 10 Nordeste 16 Nordeste 0 -- -- 85
2017-09-16 07:00:00 15.2 10 Nordeste 18 Nordeste 0 -- -- 89
2017-09-16 06:00:00 15.2 9 Nordeste 17 Nordeste 0 -- -- 93
2017-09-16 05:00:00 15.3 9 Nordeste 18 Nordeste 0 -- -- 94
2017-09-16 04:00:00 15.3 11 Nordeste 21 Nordeste 0 -- -- 94
2017-09-16 03:00:00 14.8 9 Este 21 Nordeste 4 -- -- 93
2017-09-16 02:00:00 14.9 12 Este 31 Este 11.8 -- -- 91
2017-09-16 01:00:00 15.5 17 Nordeste 35 Nordeste 0 -- -- 92
2017-09-16 00:00:00 15.2 23 Nordeste 44 Nordeste 0.4 -- -- 94
2017-09-15 23:00:00 15.1 27 Nordeste 52 Nordeste 9.4 -- -- 92
2017-09-15 22:00:00 16.3 24 Nordeste 39 Nordeste 0 -- -- 90
2017-09-15 21:00:00 16.3 25 Nordeste 41 Nordeste 0 -- -- 92
2017-09-15 20:00:00 16.6 25 Nordeste 42 Nordeste 0 -- -- 93
2017-09-15 19:00:00 18.2 17 Nordeste 31 Nordeste 0 -- -- 93
2017-09-15 18:00:00 18.2 16 Nordeste 26 Nordeste 0 -- -- 94
2017-09-15 17:00:00 18.4 17 Nordeste 38 Nordeste 0 -- -- 95
2017-09-15 16:00:00 17.6 17 Nordeste 68 Nordeste 26.8 -- -- 95
2017-09-15 15:00:00 17.8 31 Noroeste 48 Noroeste 7.8 -- -- 88
2017-09-15 14:00:00 20.3 19 Nordeste 39 Nordeste 0 -- -- 77
2017-09-15 13:00:00 21.5 19 Este 35 Nordeste 0 -- -- 69
2017-09-15 12:00:00 20.9 19 Nordeste 35 Nordeste 0 -- -- 70
2017-09-15 11:00:00 21.5 16 Nordeste 27 Nordeste 0 -- -- 69
2017-09-15 10:00:00 21 10 Nordeste 21 Nordeste 0 -- -- 70
2017-09-15 09:00:00 20.6 12 Nordeste 26 Nordeste 0 -- -- 70
2017-09-15 08:00:00 20.5 10 Nordeste 21 Nordeste 0 -- -- 72
2017-09-15 07:00:00 20.6 14 Nordeste 27 Nordeste 0 -- -- 70
2017-09-15 06:00:00 20.7 9 Nordeste 18 Nordeste 0 -- -- 69
2017-09-15 05:00:00 20.6 9 Nordeste 19 Nordeste 0 -- -- 71
2017-09-15 04:00:00 20.7 12 Nordeste 24 Este 0 -- -- 70
2017-09-15 03:00:00 20.9 13 Nordeste 25 Nordeste 0 -- -- 70
2017-09-15 02:00:00 20.9 12 Nordeste 26 Nordeste 0 -- -- 71
2017-09-15 01:00:00 21 12 Nordeste 29 Nordeste 0 -- -- 74
2017-09-15 00:00:00 21.1 18 Nordeste 43 Nordeste 0 -- -- 74
2017-09-14 23:00:00 21.5 20 Nordeste 36 Nordeste 0 -- -- 75
2017-09-14 22:00:00 22 20 Nordeste 46 Nordeste 0 -- -- 77
2017-09-14 21:00:00 22 23 Nordeste 44 Nordeste 0 -- -- 79
2017-09-14 20:00:00 24.3 18 Nordeste 32 Nordeste 0 -- -- 76
2017-09-14 19:00:00 25.6 17 Nordeste 33 Nordeste 0 -- -- 71
2017-09-14 18:00:00 26.3 18 Nordeste 29 Nordeste 0 -- -- 68
2017-09-14 17:00:00 28.3 8 Oeste 22 Sudoeste 0 -- -- 59
2017-09-14 16:00:00 28.1 18 Sudoeste 28 Sudoeste 0 -- -- 58
2017-09-14 15:00:00 28 19 Sudoeste 32 Sudoeste 0 -- -- 57
2017-09-14 14:00:00 27.7 17 Sudoeste 31 Sudoeste 0 -- -- 58
2017-09-14 13:00:00 27.2 16 Sudoeste 25 Oeste 0 -- -- 58
2017-09-14 12:00:00 26.2 13 Oeste 26 Oeste 0 -- -- 67
2017-09-14 11:00:00 25 14 Oeste 21 Sudoeste 0 -- -- 71
2017-09-14 10:00:00 23.6 10 Oeste 16 Sudoeste 0 -- -- 79
2017-09-14 09:00:00 20.4 5 Oeste 7 Oeste 0 -- -- 94
2017-09-14 08:00:00 17.6 6 Oeste 9 Oeste 0 -- -- 94
2017-09-14 07:00:00 16.6 4 Oeste 7 Oeste 0 -- -- 93
2017-09-14 06:00:00 16.9 0 Calma 4 Oeste 0 -- -- 92
2017-09-14 05:00:00 17.6 2 Oeste 8 Oeste 0 -- -- 91
2017-09-14 04:00:00 18 8 Oeste 9 Oeste 0 -- -- 91
2017-09-14 03:00:00 18 6 Oeste 8 Oeste 0 -- -- 90
2017-09-14 02:00:00 18.7 6 Noroeste 7 Oeste 0 -- -- 89
2017-09-14 01:00:00 19 5 Oeste 8 Oeste 0 -- -- 87
2017-09-14 00:00:00 19.7 5 Oeste 8 Oeste 0 -- -- 85
2017-09-13 23:00:00 20.6 3 Oeste 9 Oeste 0 -- -- 82
2017-09-13 22:00:00 21.5 7 Oeste 9 Oeste 0 -- -- 79
2017-09-13 21:00:00 22.4 6 Sudoeste 15 Sudoeste 0 -- -- 74
2017-09-13 20:00:00 23.6 13 Sudoeste 25 Oeste 0 -- -- 68
2017-09-13 19:00:00 25.5 14 Sudoeste 30 Sudoeste 0 -- -- 65
2017-09-13 18:00:00 26.5 16 Sudoeste 30 Oeste 0 -- -- 61
2017-09-13 17:00:00 27.1 18 Sudoeste 28 Sur 0 -- -- 58
2017-09-13 16:00:00 27.5 18 Sudoeste 30 Sudoeste 0 -- -- 55
2017-09-13 15:00:00 27.3 12 Oeste 22 Sudoeste 0 -- -- 53
2017-09-13 14:00:00 27.8 9 Oeste 21 Sur 0 -- -- 50
2017-09-13 13:00:00 26.1 10 Sudoeste 19 Sudoeste 0 -- -- 55
2017-09-13 12:00:00 25.6 7 Sudoeste 19 Sudoeste 0 -- -- 57
2017-09-13 11:00:00 24.2 10 Sudoeste 16 Sudoeste 0 -- -- 65
2017-09-13 10:00:00 22.5 4 Sudoeste 8 Oeste 0 -- -- 76
2017-09-13 09:00:00 18.9 0 Calma 4 Oeste 0 -- -- 94
2017-09-13 08:00:00 15.8 3 Oeste 6 Sudoeste 0 -- -- 94
2017-09-13 07:00:00 15.9 4 Noroeste 8 Noroeste 0 -- -- 93
2017-09-13 06:00:00 16 5 Noroeste 7 Noroeste 0 -- -- 93
2017-09-13 05:00:00 16.1 0 Calma 4 Noroeste 0 -- -- 91
2017-09-13 04:00:00 16.9 3 Noroeste 6 Noroeste 0 -- -- 90
2017-09-13 03:00:00 17.7 4 Noroeste 8 Norte 0 -- -- 89
2017-09-13 02:00:00 18.4 2 Norte 6 Noroeste 0 -- -- 87
2017-09-13 01:00:00 18.8 3 Noroeste 4 Noroeste 0 -- -- 87
2017-09-13 00:00:00 19.7 0 Calma 5 Nordeste 0 -- -- 81
2017-09-12 23:00:00 20.1 3 Nordeste 6 Nordeste 0 -- -- 80
2017-09-12 22:00:00 20.5 5 Nordeste 12 Este 0 -- -- 78
2017-09-12 21:00:00 21.1 6 Este 18 Este 0 -- -- 74
2017-09-12 20:00:00 21.7 13 Nordeste 22 Nordeste 0 -- -- 73
2017-09-12 19:00:00 22.4 14 Nordeste 24 Nordeste 0 -- -- 70
2017-09-12 18:00:00 23.2 14 Nordeste 22 Nordeste 0 -- -- 69
2017-09-12 17:00:00 24 13 Nordeste 31 Nordeste 0 -- -- 66
2017-09-12 16:00:00 24.6 15 Nordeste 28 Nordeste 0 -- -- 65
2017-09-12 15:00:00 24.3 17 Nordeste 27 Nordeste 0 -- -- 66
2017-09-12 14:00:00 24.5 15 Nordeste 30 Nordeste 0 -- -- 64
2017-09-12 13:00:00 24.9 17 Nordeste 31 Norte 0 -- -- 64
2017-09-12 12:00:00 25 19 Nordeste 29 Nordeste 0 -- -- 64
2017-09-12 11:00:00 24.1 17 Nordeste 31 Nordeste 0 -- -- 67
2017-09-12 10:00:00 22.8 17 Nordeste 30 Nordeste 0 -- -- 75
2017-09-12 09:00:00 21.9 13 Nordeste 20 Nordeste 0 -- -- 87
2017-09-12 08:00:00 19.6 6 Nordeste 10 Nordeste 0 -- -- 91
2017-09-12 07:00:00 18.7 8 Nordeste 11 Norte 0 -- -- 91
2017-09-12 06:00:00 17.1 6 Norte 9 Noroeste 0 -- -- 88
2017-09-12 05:00:00 16.7 4 Noroeste 6 Noroeste 0 -- -- 85
2017-09-12 04:00:00 17.3 0 Calma 8 Nordeste 0 -- -- 83
2017-09-12 03:00:00 18.1 5 Noroeste 10 Norte 0 -- -- 86
2017-09-12 02:00:00 18.5 8 Sudoeste 9 Sudoeste 0 -- -- 85
2017-09-12 01:00:00 19.7 6 Oeste 12 Oeste 0 -- -- 79
2017-09-12 00:00:00 20.4 6 Sudoeste 13 Oeste 0 -- -- 77
2017-09-11 23:00:00 21 10 Oeste 13 Sudoeste 0 -- -- 75
2017-09-11 22:00:00 21.3 8 Sudoeste 14 Sudoeste 0 -- -- 73
2017-09-11 21:00:00 22.6 11 Sudoeste 15 Sudoeste 0 -- -- 67
2017-09-11 20:00:00 24.9 11 Sudoeste 32 Sudoeste 0 -- -- 54
2017-09-11 19:00:00 26.5 22 Sudoeste 39 Sudoeste 0 -- -- 51
2017-09-11 18:00:00 27.3 24 Sudoeste 43 Sudoeste 0 -- -- 52
2017-09-11 17:00:00 27.9 26 Sudoeste 40 Sudoeste 0 -- -- 48
2017-09-11 16:00:00 28.1 28 Sudoeste 47 Sudoeste 0 -- -- 52
2017-09-11 15:00:00 28.3 25 Sudoeste 34 Sudoeste 0 -- -- 51
2017-09-11 14:00:00 28.9 19 Oeste 30 Oeste 0 -- -- 42
2017-09-11 13:00:00 28.3 12 Oeste 28 Oeste 0 -- -- 45
2017-09-11 12:00:00 27.4 12 Noroeste 29 Noroeste 0 -- -- 45
2017-09-11 11:00:00 26.2 16 Noroeste 28 Noroeste 0 -- -- 49
2017-09-11 10:00:00 25.1 17 Sur 23 Sur 0 -- -- 58
2017-09-11 09:00:00 23.3 15 Sudoeste 28 Sudoeste 0 -- -- 63
2017-09-11 08:00:00 20.7 12 Sudoeste 20 Sudoeste 0 -- -- 74
2017-09-11 07:00:00 19.8 10 Sudoeste 18 Sur 0 -- -- 72
2017-09-11 06:00:00 19.5 12 Sudoeste 20 Sudoeste 0 -- -- 70
2017-09-11 05:00:00 18.6 10 Sudoeste 17 Sur 0 -- -- 64
2017-09-11 04:00:00 19.6 9 Sudoeste 27 Oeste 0 -- -- 58
2017-09-11 03:00:00 21.5 18 Noroeste 39 Oeste 0 -- -- 51
2017-09-11 02:00:00 20.9 12 Oeste 30 Noroeste 0 -- -- 56
2017-09-11 01:00:00 21.3 16 Oeste 29 Noroeste 0 -- -- 57
2017-09-11 00:00:00 21.4 18 Oeste 34 Noroeste 0 -- -- 58
2017-09-10 23:00:00 19.9 16 Oeste 23 Oeste 0 -- -- 64
2017-09-10 22:00:00 17.5 7 Oeste 13 Sudoeste 0 -- -- 75
2017-09-10 21:00:00 18.8 6 Sudoeste 12 Sur 0 -- -- 69
2017-09-10 20:00:00 21.1 5 Sudoeste 22 Oeste 0 -- -- 59
2017-09-10 19:00:00 22.6 8 Oeste 26 Oeste 0 -- -- 51
2017-09-10 18:00:00 22.6 8 Noroeste 22 Noroeste 0 -- -- 49
2017-09-10 17:00:00 22.5 13 Noroeste 31 Noroeste 0 -- -- 49
2017-09-10 16:00:00 21.9 16 Noroeste 29 Oeste 0 -- -- 55
2017-09-10 15:00:00 18.9 6 Sudoeste 11 Sudoeste 0.2 -- -- 78
2017-09-10 14:00:00 18.7 12 Nordeste 29 Este 0.6 -- -- 70
2017-09-10 13:00:00 21.5 9 Sur 17 Sudoeste 0 -- -- 59
2017-09-10 12:00:00 19.4 5 Sudoeste 13 Oeste 0 -- -- 72
2017-09-10 11:00:00 17.7 3 Norte 14 Norte 0 -- -- 84
2017-09-10 10:00:00 16.9 6 Norte 12 Norte 0 -- -- 90
2017-09-10 09:00:00 15.7 4 Noroeste 6 Noroeste 0.2 -- -- 94
2017-09-10 08:00:00 15.1 3 Norte 15 Nordeste 0.8 -- -- 93
2017-09-10 07:00:00 15.4 9 Noroeste 15 Noroeste 5.6 -- -- 94
2017-09-10 06:00:00 15.1 3 Sudeste 8 Norte 0.4 -- -- 94
2017-09-10 05:00:00 14.9 6 Norte 12 Norte 0 -- -- 94
2017-09-10 04:00:00 15 4 Norte 14 Nordeste 0 -- -- 94
2017-09-10 03:00:00 14.8 10 Nordeste 35 Este 2 -- -- 94
2017-09-10 02:00:00 16.1 17 Nordeste 29 Nordeste 11 -- -- 92
2017-09-10 01:00:00 17.8 8 Sur 15 Noroeste 0 -- -- 92
2017-09-10 00:00:00 17.8 11 Sudoeste 15 Sudoeste 0 -- -- 92
2017-09-09 23:00:00 17.7 0 Calma 18 Este 0.6 -- -- 91
2017-09-09 22:00:00 18 11 Nordeste 33 Nordeste 1 -- -- 88
2017-09-09 21:00:00 18.8 24 Nordeste 53 Nordeste 0 -- -- 81
2017-09-09 20:00:00 20.9 25 Nordeste 49 Nordeste 0 -- -- 70
2017-09-09 19:00:00 22.6 22 Nordeste 41 Nordeste 0 -- -- 72
2017-09-09 18:00:00 25 14 Noroeste 30 Noroeste 0 -- -- 59
2017-09-09 17:00:00 26 20 Noroeste 34 Sudoeste 0 -- -- 55
2017-09-09 16:00:00 28 19 Sudoeste 38 Sudoeste 0 -- -- 60
2017-09-09 15:00:00 28 20 Sudoeste 36 Sudoeste 0 -- -- 60
2017-09-09 14:00:00 27.5 22 Sudoeste 40 Sudoeste 0 -- -- 68
2017-09-09 13:00:00 26.6 21 Sudoeste 39 Sudoeste 0 -- -- 70
2017-09-09 12:00:00 26.8 22 Sudoeste 37 Sudoeste 0 -- -- 68
2017-09-09 11:00:00 26.1 19 Sudoeste 31 Sudoeste 0 -- -- 71
2017-09-09 10:00:00 24.2 12 Sudoeste 19 Oeste 0 -- -- 83
2017-09-09 09:00:00 22.5 10 Sudoeste 14 Sudoeste 0 -- -- 93
2017-09-09 08:00:00 20.1 4 Oeste 9 Oeste 0 -- -- 94
2017-09-09 07:00:00 20 5 Oeste 8 Oeste 0 -- -- 94
2017-09-09 06:00:00 20 5 Oeste 8 Oeste 0 -- -- 94
2017-09-09 05:00:00 20.4 6 Noroeste 9 Oeste 0 -- -- 94
2017-09-09 04:00:00 20.4 5 Oeste 8 Oeste 0 -- -- 93
2017-09-09 03:00:00 20.7 6 Sudoeste 10 Sur 0 -- -- 93
2017-09-09 02:00:00 20.6 7 Sudoeste 9 Sudoeste 0 -- -- 92
2017-09-09 01:00:00 21.1 7 Sudoeste 12 Sudoeste 0 -- -- 91
2017-09-09 00:00:00 21.4 8 Sudoeste 12 Oeste 0 -- -- 90
2017-09-08 23:00:00 21.4 8 Sudoeste 12 Sur 0 -- -- 89
2017-09-08 22:00:00 22.3 5 Oeste 12 Oeste 0 -- -- 86
2017-09-08 21:00:00 22.9 8 Sudoeste 19 Sudoeste 0 -- -- 83
2017-09-08 20:00:00 24 12 Sudoeste 26 Sudoeste 0 -- -- 77
2017-09-08 19:00:00 25.9 18 Sudoeste 27 Sudoeste 0 -- -- 68
2017-09-08 18:00:00 28.4 11 Oeste 30 Noroeste 0 -- -- 41
2017-09-08 17:00:00 27.9 19 Sudoeste 38 Sudoeste 0 -- -- 54
2017-09-08 16:00:00 27.9 18 Sudoeste 30 Sur 0 -- -- 59
2017-09-08 15:00:00 27.9 18 Sudoeste 33 Sur 0 -- -- 59
2017-09-08 14:00:00 27.7 17 Sudoeste 25 Sudoeste 0 -- -- 62
2017-09-08 13:00:00 26.7 8 Sudoeste 15 Sudoeste 0 -- -- 59
2017-09-08 12:00:00 25.8 6 Sudeste 12 Este 0 -- -- 63
2017-09-08 11:00:00 24.3 4 Sudeste 9 Sudeste 0 -- -- 75
2017-09-08 10:00:00 21.7 0 Calma 5 Sudeste 0 -- -- 93
2017-09-08 09:00:00 19.5 0 Calma 7 Norte 0 -- -- 97
2017-09-08 08:00:00 17.8 3 Oeste 9 Oeste 0 -- -- 96
2017-09-08 07:00:00 18 3 Norte 9 Noroeste 0 -- -- 95
2017-09-08 06:00:00 18.1 4 Sudoeste 5 Este 0 -- -- 95
2017-09-08 05:00:00 18.6 0 Calma 10 Este 0 -- -- 95
2017-09-08 04:00:00 18.9 3 Oeste 5 Oeste 0 -- -- 94
2017-09-08 03:00:00 19.4 4 Noroeste 6 Oeste 0 -- -- 94
2017-09-08 02:00:00 19.7 0 Calma 6 Nordeste 0 -- -- 94
2017-09-08 01:00:00 20 3 Noroeste 4 Noroeste 0 -- -- 93
2017-09-08 00:00:00 20.6 3 Sudeste 4 Sudeste 0 -- -- 92
2017-09-07 23:00:00 21.2 0 Calma 5 Noroeste 0 -- -- 91
2017-09-07 22:00:00 21.5 4 Noroeste 7 Noroeste 0 -- -- 90
2017-09-07 21:00:00 21.9 0 Calma 6 Sur 0 -- -- 89
2017-09-07 20:00:00 21.9 3 Sur 6 Sur 0 -- -- 86
2017-09-07 19:00:00 21.9 4 Sudoeste 8 Oeste 0 -- -- 86
2017-09-07 18:00:00 21.4 6 Sudoeste 12 Este 0 -- -- 89
2017-09-07 17:00:00 21.5 5 Nordeste 16 Norte 4.4 -- -- 90
2017-09-07 16:00:00 22 10 Nordeste 18 Norte 1 -- -- 89
2017-09-07 15:00:00 22.7 15 Norte 23 Nordeste 1 -- -- 83
2017-09-07 14:00:00 25 9 Este 22 Este 0 -- -- 67
2017-09-07 13:00:00 25.2 12 Este 20 Este 0 -- -- 67
2017-09-07 12:00:00 24.6 8 Este 16 Este 0 -- -- 72
2017-09-07 11:00:00 21.4 3 Nordeste 12 Norte 0 -- -- 88
2017-09-07 10:00:00 17.9 9 Norte 23 Nordeste 1.2 -- -- 93
2017-09-07 09:00:00 18.9 4 Noroeste 35 Norte 8.8 -- -- 92
2017-09-07 08:00:00 21.5 4 Oeste 5 Oeste 0 -- -- 92
2017-09-07 07:00:00 21.2 4 Sudoeste 6 Sudoeste 0 -- -- 91
2017-09-07 06:00:00 20.8 0 Calma 4 Noroeste 0 -- -- 91
2017-09-07 05:00:00 20.7 3 Noroeste 4 Oeste 0 -- -- 89
2017-09-07 04:00:00 21.3 2 Norte 4 Norte 0 -- -- 89
2017-09-07 03:00:00 21.8 0 Calma 5 Norte 0 -- -- 86
2017-09-07 02:00:00 22.6 2 Nordeste 5 Este 0 -- -- 84
2017-09-07 01:00:00 22.9 0 Calma 4 Nordeste 0 -- -- 83
2017-09-07 00:00:00 23.1 3 Norte 5 Nordeste 0 -- -- 83
2017-09-06 23:00:00 23.3 0 Calma 3 Nordeste 0 -- -- 82
2017-09-06 22:00:00 23.4 2 Nordeste 6 Sudeste 0 -- -- 80
2017-09-06 21:00:00 23.8 3 Sudeste 7 Sudeste 0 -- -- 80
2017-09-06 20:00:00 24.1 5 Sudeste 9 Sudeste 0 -- -- 78
2017-09-06 19:00:00 25.1 3 Este 8 Nordeste 0 -- -- 74
2017-09-06 18:00:00 24.3 3 Nordeste 9 Noroeste 0 -- -- 74
2017-09-06 17:00:00 22.1 5 Noroeste 39 Sudoeste 14.6 -- -- 91
2017-09-06 16:00:00 22.9 23 Sudoeste 39 Sudoeste 0 -- -- 78
2017-09-06 15:00:00 27 20 Nordeste 33 Nordeste 0 -- -- 62
2017-09-06 14:00:00 29.3 18 Nordeste 29 Nordeste 0 -- -- 56
2017-09-06 13:00:00 30 13 Nordeste 29 Este 0 -- -- 51
2017-09-06 12:00:00 29.2 14 Este 26 Nordeste 0 -- -- 57
2017-09-06 11:00:00 28 16 Este 27 Este 0 -- -- 63
2017-09-06 10:00:00 26 8 Este 16 Este 0 -- -- 70
2017-09-06 09:00:00 22 0 Calma 4 Noroeste 0 -- -- 81
2017-09-06 08:00:00 17.4 2 Noroeste 4 Nordeste 0 -- -- 90
2017-09-06 07:00:00 17.5 0 Calma 4 Sudoeste 0 -- -- 89
2017-09-06 06:00:00 17.5 3 Oeste 4 Oeste 0 -- -- 87
2017-09-06 05:00:00 18.4 2 Noroeste 4 Oeste 0 -- -- 88
2017-09-06 04:00:00 19 3 Oeste 4 Sur 0 -- -- 85
2017-09-06 03:00:00 19.8 3 Sur 4 Sur 0 -- -- 82
2017-09-06 02:00:00 20.9 3 Oeste 6 Noroeste 0 -- -- 81
2017-09-06 01:00:00 21.8 6 Oeste 8 Noroeste 0 -- -- 82
2017-09-06 00:00:00 22.2 5 Sudoeste 9 Sudoeste 0 -- -- 80
2017-09-05 23:00:00 23.5 6 Sudoeste 9 Oeste 0 -- -- 76
2017-09-05 22:00:00 24.2 5 Sudoeste 16 Oeste 0 -- -- 73
2017-09-05 21:00:00 25 10 Oeste 16 Sudoeste 0 -- -- 68
2017-09-05 20:00:00 26.7 12 Oeste 19 Sudoeste 0 -- -- 53
2017-09-05 19:00:00 28.4 15 Sudoeste 23 Sur 0 -- -- 46
2017-09-05 18:00:00 29.6 16 Sudoeste 28 Sudoeste 0 -- -- 43
2017-09-05 17:00:00 30.3 16 Oeste 27 Sudoeste 0 -- -- 40
2017-09-05 16:00:00 30.5 18 Sudoeste 31 Oeste 0 -- -- 41
2017-09-05 15:00:00 31.3 17 Sudoeste 33 Sudoeste 0 -- -- 39
2017-09-05 14:00:00 31.4 15 Sur 33 Sudoeste 0 -- -- 41
2017-09-05 13:00:00 30.9 11 Sur 23 Sur 0 -- -- 38
2017-09-05 12:00:00 29.2 7 Oeste 15 Sur 0 -- -- 47
2017-09-05 11:00:00 27.7 5 Sur 13 Sudeste 0 -- -- 57
2017-09-05 10:00:00 25.8 5 Norte 11 Noroeste 0 -- -- 67
2017-09-05 09:00:00 22.3 0 Calma 4 Sur 0 -- -- 82
2017-09-05 08:00:00 18.2 3 Norte 5 Noroeste 0 -- -- 89
2017-09-05 07:00:00 18.1 2 Noroeste 7 Noroeste 0 -- -- 88
2017-09-05 06:00:00 19.5 6 Noroeste 9 Noroeste 0 -- -- 88
2017-09-05 05:00:00 19.3 5 Noroeste 9 Noroeste 0 -- -- 86
2017-09-05 04:00:00 20.2 6 Norte 8 Noroeste 0 -- -- 84
2017-09-05 03:00:00 20.3 4 Noroeste 9 Norte 0 -- -- 81
2017-09-05 02:00:00 21.1 4 Norte 9 Noroeste 0 -- -- 80
2017-09-05 01:00:00 21.3 4 Norte 8 Nordeste 0 -- -- 77
2017-09-05 00:00:00 22.1 5 Norte 9 Nordeste 0 -- -- 75
2017-09-04 23:00:00 22.4 4 Norte 6 Norte 0 -- -- 70
2017-09-04 22:00:00 23.6 3 Nordeste 13 Este 0 -- -- 67
2017-09-04 21:00:00 24.8 7 Este 14 Este 0 -- -- 62
2017-09-04 20:00:00 26.5 9 Sudeste 21 Este 0 -- -- 55
2017-09-04 19:00:00 28.1 15 Sudeste 29 Sudeste 0 -- -- 52
2017-09-04 18:00:00 28.8 17 Sudeste 27 Sudeste 0 -- -- 48
2017-09-04 17:00:00 29.5 15 Sur 26 Sudeste 0 -- -- 43
2017-09-04 16:00:00 29.8 6 Este 27 Sur 0 -- -- 44
2017-09-04 15:00:00 30.1 6 Sudeste 23 Sur 0 -- -- 44
2017-09-04 14:00:00 29.8 16 Sur 24 Sur 0 -- -- 45
2017-09-04 13:00:00 28.9 15 Sudoeste 24 Sur 0 -- -- 56
2017-09-04 12:00:00 27.6 8 Sur 21 Sudeste 0 -- -- 59
2017-09-04 11:00:00 25.8 7 Sur 15 Sudoeste 0 -- -- 68
2017-09-04 10:00:00 24 4 Norte 8 Norte 0 -- -- 77
2017-09-04 09:00:00 21.6 0 Calma 5 Noroeste 0 -- -- 85
2017-09-04 08:00:00 20.1 4 Noroeste 8 Noroeste 0 -- -- 89
2017-09-04 07:00:00 19.5 3 Oeste 7 Oeste 0 -- -- 88
2017-09-04 06:00:00 19.7 5 Sudoeste 11 Oeste 0 -- -- 87
2017-09-04 05:00:00 19.3 4 Norte 8 Este 0 -- -- 86
2017-09-04 04:00:00 19 2 Este 5 Sudoeste 0 -- -- 86
2017-09-04 03:00:00 19.4 3 Sudoeste 5 Sudoeste 0 -- -- 84
2017-09-04 02:00:00 20 5 Sudoeste 9 Oeste 0 -- -- 83
2017-09-04 01:00:00 20.5 8 Sudoeste 9 Sudoeste 0 -- -- 81
2017-09-04 00:00:00 21.1 6 Sudoeste 8 Sudoeste 0 -- -- 78
2017-09-03 23:00:00 21.9 3 Oeste 11 Sudoeste 0 -- -- 76
2017-09-03 22:00:00 23 9 Sudoeste 16 Sudoeste 0 -- -- 73
2017-09-03 21:00:00 23.7 10 Sudoeste 22 Sudoeste 0 -- -- 71
2017-09-03 20:00:00 24.5 15 Sudoeste 26 Sudoeste 0 -- -- 69
2017-09-03 19:00:00 25.6 19 Sudoeste 31 Sur 0 -- -- 64
2017-09-03 18:00:00 26.8 17 Sudoeste 33 Sudoeste 0 -- -- 60
2017-09-03 17:00:00 27.4 21 Sudoeste 34 Sudoeste 0 -- -- 55
2017-09-03 16:00:00 26.8 23 Sudoeste 36 Sudoeste 0 -- -- 56
2017-09-03 15:00:00 28 18 Sudoeste 28 Sudoeste 0 -- -- 53
2017-09-03 14:00:00 27.6 15 Sudoeste 30 Sudoeste 0 -- -- 50
2017-09-03 13:00:00 27.1 18 Sudoeste 37 Sudoeste 0 -- -- 48
2017-09-03 12:00:00 26.7 17 Sudoeste 28 Sudoeste 0 -- -- 41
2017-09-03 11:00:00 25.3 15 Oeste 23 Oeste 0 -- -- 49
2017-09-03 10:00:00 23.5 12 Sudoeste 21 Sudoeste 0 -- -- 63
2017-09-03 09:00:00 17.4 2 Sudoeste 5 Noroeste 0 -- -- 85
2017-09-03 08:00:00 14.9 0 Calma 7 Oeste 0 -- -- 89
2017-09-03 07:00:00 14.8 4 Oeste 9 Sudoeste 0 -- -- 88
2017-09-03 06:00:00 14.8 2 Sudoeste 8 Sur 0 -- -- 86
2017-09-03 05:00:00 16 3 Sudoeste 7 Sur 0 -- -- 83
2017-09-03 04:00:00 17.4 0 Calma 10 Noroeste 0 -- -- 81
2017-09-03 03:00:00 18.2 6 Norte 10 Norte 0 -- -- 81
2017-09-03 02:00:00 18.7 8 Norte 10 Norte 0 -- -- 79
2017-09-03 01:00:00 18.9 6 Norte 9 Norte 0 -- -- 78
2017-09-03 00:00:00 19.5 6 Norte 8 Norte 0 -- -- 74
2017-09-02 23:00:00 20.3 5 Norte 8 Norte 0 -- -- 71
2017-09-02 22:00:00 21.2 4 Nordeste 14 Este 0 -- -- 69
2017-09-02 21:00:00 22.1 8 Nordeste 18 Nordeste 0 -- -- 65
2017-09-02 20:00:00 23.4 11 Nordeste 24 Nordeste 0 -- -- 59
2017-09-02 19:00:00 25.1 14 Este 31 Este 0 -- -- 54
2017-09-02 18:00:00 26.7 13 Nordeste 28 Este 0 -- -- 50
2017-09-02 17:00:00 27.2 14 Este 30 Este 0 -- -- 48
2017-09-02 16:00:00 28.3 14 Este 27 Este 0 -- -- 46
2017-09-02 15:00:00 27.5 8 Noroeste 22 Este 0 -- -- 46
2017-09-02 14:00:00 26.4 10 Nordeste 25 Nordeste 0 -- -- 50
2017-09-02 13:00:00 26.6 11 Nordeste 22 Nordeste 0 -- -- 51
2017-09-02 12:00:00 26 10 Sudeste 19 Sudeste 0 -- -- 43
2017-09-02 11:00:00 25 6 Oeste 16 Noroeste 0 -- -- 45
2017-09-02 10:00:00 24.7 11 Norte 18 Noroeste 0 -- -- 47
2017-09-02 09:00:00 22.8 9 Noroeste 17 Noroeste 0 -- -- 52
2017-09-02 08:00:00 20.3 9 Noroeste 14 Noroeste 0 -- -- 65
2017-09-02 07:00:00 19.4 0 Calma 8 Noroeste 0 -- -- 75
2017-09-02 06:00:00 17.6 3 Noroeste 6 Noroeste 0 -- -- 80
2017-09-02 05:00:00 18.3 4 Oeste 6 Sudoeste 0 -- -- 79
2017-09-02 04:00:00 18.3 2 Noroeste 4 Noroeste 0 -- -- 78
2017-09-02 03:00:00 18.6 2 Noroeste 5 Sur 0 -- -- 77
2017-09-02 02:00:00 18.4 2 Sur 5 Norte 0 -- -- 76
2017-09-02 01:00:00 19.3 0 Calma 7 Nordeste 0 -- -- 73
2017-09-02 00:00:00 20.1 5 Nordeste 9 Nordeste 0 -- -- 72
2017-09-01 23:00:00 20.5 4 Norte 7 Norte 0 -- -- 70
2017-09-01 22:00:00 21.5 5 Nordeste 15 Este 0 -- -- 66
2017-09-01 21:00:00 22.3 8 Nordeste 22 Este 0 -- -- 64
2017-09-01 20:00:00 23.6 13 Este 26 Este 0 -- -- 59
2017-09-01 19:00:00 25.5 14 Este 29 Este 0 -- -- 55
2017-09-01 18:00:00 26.6 18 Este 31 Nordeste 0 -- -- 52
2017-09-01 17:00:00 27.2 16 Nordeste 35 Este 0 -- -- 51
2017-09-01 16:00:00 27.8 18 Este 37 Este 0 -- -- 50
2017-09-01 15:00:00 27.6 21 Este 38 Este 0 -- -- 52
2017-09-01 14:00:00 26.9 20 Nordeste 34 Nordeste 0 -- -- 53
2017-09-01 13:00:00 26.6 20 Este 40 Este 0 -- -- 54
2017-09-01 12:00:00 25.4 18 Nordeste 34 Nordeste 0 -- -- 60
2017-09-01 11:00:00 24.4 21 Nordeste 33 Nordeste 0 -- -- 63
2017-09-01 10:00:00 24.1 16 Nordeste 37 Nordeste 0 -- -- 66
2017-09-01 09:00:00 22.6 17 Nordeste 32 Este 0 -- -- 71
2017-09-01 08:00:00 21.3 12 Nordeste 23 Nordeste 0 -- -- 79
2017-09-01 07:00:00 21.3 13 Nordeste 21 Nordeste 0 -- -- 82
2017-09-01 06:00:00 21.1 9 Nordeste 17 Nordeste 0 -- -- 86
2017-09-01 05:00:00 21.3 8 Nordeste 22 Nordeste 0 -- -- 87
2017-09-01 04:00:00 21.7 10 Nordeste 17 Nordeste 0 -- -- 88
2017-09-01 03:00:00 20.8 7 Nordeste 11 Norte 0 -- -- 87
2017-09-01 02:00:00 20.4 6 Norte 9 Nordeste 0 -- -- 87
2017-09-01 01:00:00 20.8 4 Nordeste 10 Norte 0 -- -- 86
2017-09-01 00:00:00 21.3 3 Norte 7 Nordeste 0 -- -- 84
2017-08-31 23:00:00 22 6 Nordeste 18 Norte 0 -- -- 82
2017-08-31 22:00:00 22.2 12 Nordeste 20 Nordeste 0 -- -- 81
2017-08-31 21:00:00 22.6 12 Nordeste 23 Nordeste 0 -- -- 79
2017-08-31 20:00:00 22.8 17 Nordeste 36 Nordeste 0 -- -- 78
2017-08-31 19:00:00 23.9 23 Nordeste 43 Nordeste 0 -- -- 78
2017-08-31 18:00:00 25.2 21 Nordeste 39 Este 0 -- -- 70
2017-08-31 17:00:00 28.5 14 Este 30 Este 0 -- -- 59
2017-08-31 16:00:00 26.3 11 Noroeste 41 Oeste 0 -- -- 60
2017-08-31 15:00:00 30.2 11 Sur 18 Sudoeste 0 -- -- 46
2017-08-31 14:00:00 30.3 6 Norte 19 Sudeste 0 -- -- 50
2017-08-31 13:00:00 28.6 9 Sudeste 20 Sur 0 -- -- 53
2017-08-31 12:00:00 27.9 6 Este 11 Este 0 -- -- 61
2017-08-31 11:00:00 25.1 0 Calma 10 Noroeste 0 -- -- 68
2017-08-31 10:00:00 23.3 4 Noroeste 12 Oeste 0 -- -- 83
2017-08-31 09:00:00 22 4 Oeste 16 Sur 0 -- -- 88
2017-08-31 08:00:00 21.6 5 Nordeste 14 Norte 0.2 -- -- 87
2017-08-31 07:00:00 21.8 3 Nordeste 18 Norte 0.2 -- -- 89
2017-08-31 06:00:00 21.7 14 Nordeste 20 Nordeste 0.2 -- -- 88
2017-08-31 05:00:00 22.3 8 Sudeste 14 Sudeste 0 -- -- 84
2017-08-31 04:00:00 22.1 5 Noroeste 13 Sur 0 -- -- 87
2017-08-31 03:00:00 22.3 2 Noroeste 17 Sur 0.2 -- -- 86
2017-08-31 02:00:00 23.4 10 Sudoeste 15 Noroeste 0 -- -- 71
2017-08-31 01:00:00 22.3 5 Sudoeste 6 Sudoeste 0 -- -- 73
2017-08-31 00:00:00 23 3 Oeste 6 Norte 0 -- -- 73
2017-08-30 23:00:00 24.2 4 Nordeste 8 Nordeste 0 -- -- 72
2017-08-30 22:00:00 24.9 3 Nordeste 15 Nordeste 0 -- -- 68
2017-08-30 21:00:00 25.7 6 Sudoeste 13 Sudoeste 0 -- -- 67
2017-08-30 20:00:00 27.9 9 Sudoeste 27 Sudoeste 0 -- -- 52
2017-08-30 19:00:00 30.2 13 Sudoeste 26 Sudoeste 0 -- -- 39
2017-08-30 18:00:00 30.1 17 Sudoeste 30 Sudoeste 0 -- -- 39
2017-08-30 17:00:00 30.4 19 Sudoeste 27 Sudoeste 0 -- -- 39
2017-08-30 16:00:00 31.6 19 Sudoeste 26 Sudoeste 0 -- -- 37
2017-08-30 15:00:00 32.5 11 Sudoeste 28 Sudoeste 0 -- -- 36
2017-08-30 14:00:00 32 12 Sudoeste 21 Sudoeste 0 -- -- 37
2017-08-30 13:00:00 32.1 5 Sur 17 Este 0 -- -- 36
2017-08-30 12:00:00 30.9 4 Sur 10 Sur 0 -- -- 38
2017-08-30 11:00:00 28 0 Calma 6 Sur 0 -- -- 49
2017-08-30 10:00:00 27.3 3 Este 8 Este 0 -- -- 50
2017-08-30 09:00:00 26 3 Este 16 Noroeste 0 -- -- 52
2017-08-30 08:00:00 24.7 9 Noroeste 25 Noroeste 0 -- -- 60
2017-08-30 07:00:00 24.9 12 Noroeste 28 Noroeste 0 -- -- 58
2017-08-30 06:00:00 24.6 6 Norte 13 Norte 0 -- -- 66
2017-08-30 05:00:00 24.8 9 Norte 32 Norte 0 -- -- 65
2017-08-30 04:00:00 25.4 17 Noroeste 33 Noroeste 0 -- -- 66
2017-08-30 03:00:00 24.7 5 Sudoeste 13 Sudoeste 0 -- -- 64
2017-08-30 02:00:00 24.1 3 Norte 8 Nordeste 0 -- -- 64
2017-08-30 01:00:00 24.4 3 Nordeste 6 Este 0 -- -- 63
2017-08-30 00:00:00 24.8 4 Sudeste 7 Sudoeste 0 -- -- 60
2017-08-29 23:00:00 25.9 0 Calma 11 Este 0 -- -- 55
2017-08-29 22:00:00 27.1 5 Este 14 Este 0 -- -- 53
2017-08-29 21:00:00 28.1 6 Sudeste 14 Sudeste 0 -- -- 60
2017-08-29 20:00:00 29.9 7 Norte 18 Noroeste 0 -- -- 46
2017-08-29 19:00:00 31.8 9 Este 24 Este 0 -- -- 43
2017-08-29 18:00:00 32.8 13 Este 24 Este 0 -- -- 46
2017-08-29 17:00:00 32.6 12 Este 22 Sudoeste 0 -- -- 51
2017-08-29 16:00:00 33.4 11 Sudoeste 25 Sur 0 -- -- 37
2017-08-29 15:00:00 35 13 Sudoeste 26 Sudoeste 0 -- -- 31
2017-08-29 14:00:00 34.8 15 Sudoeste 29 Oeste 0 -- -- 30
2017-08-29 13:00:00 32.4 13 Sudoeste 19 Sudoeste 0 -- -- 35
2017-08-29 12:00:00 32.2 8 Sudoeste 12 Sur 0 -- -- 38
2017-08-29 11:00:00 31.3 6 Sudoeste 17 Sudoeste 0 -- -- 41
2017-08-29 10:00:00 27.9 10 Sudoeste 15 Sudoeste 0 -- -- 61
2017-08-29 09:00:00 25.7 8 Oeste 12 Oeste 0 -- -- 85
2017-08-29 08:00:00 22.8 5 Oeste 9 Norte 0 -- -- 93
2017-08-29 07:00:00 22.9 6 Norte 11 Oeste 0 -- -- 93
2017-08-29 06:00:00 23.8 3 Noroeste 17 Sudoeste 0 -- -- 93
2017-08-29 05:00:00 24.1 9 Oeste 22 Oeste 0 -- -- 93
2017-08-29 04:00:00 23.8 5 Sudoeste 9 Sur 0 -- -- 91
2017-08-29 03:00:00 24.7 5 Sur 14 Oeste 0 -- -- 90
2017-08-29 02:00:00 25.1 10 Oeste 15 Sudoeste 0 -- -- 90
2017-08-29 01:00:00 25.5 7 Oeste 14 Oeste 0 -- -- 88
2017-08-29 00:00:00 25.8 8 Oeste 14 Oeste 0 -- -- 87
2017-08-28 23:00:00 26.1 11 Sudoeste 21 Oeste 0 -- -- 84
2017-08-28 22:00:00 26.9 8 Sudoeste 12 Sudoeste 0 -- -- 76
2017-08-28 21:00:00 27.5 5 Sudoeste 13 Sudoeste 0 -- -- 71
2017-08-28 20:00:00 29.3 10 Sudoeste 22 Sur 0 -- -- 64
2017-08-28 19:00:00 31.1 14 Sudoeste 23 Oeste 0 -- -- 50
2017-08-28 18:00:00 30.2 17 Oeste 40 Sudoeste 0 -- -- 63
2017-08-28 17:00:00 31.3 7 Sur 17 Noroeste 0 -- -- 57
2017-08-28 16:00:00 29.4 10 Oeste 28 Sudoeste 0 -- -- 68
2017-08-28 15:00:00 30.8 21 Sudoeste 35 Sudoeste 0 -- -- 64
2017-08-28 14:00:00 32.4 6 Este 14 Este 0 -- -- 52
2017-08-28 13:00:00 31.7 5 Este 11 Este 0 -- -- 53
2017-08-28 12:00:00 30.1 3 Norte 9 Este 0 -- -- 54
2017-08-28 11:00:00 28.2 5 Sudeste 11 Sudeste 0 -- -- 70
2017-08-28 10:00:00 26.7 4 Nordeste 11 Nordeste 0 -- -- 82
2017-08-28 09:00:00 24.8 4 Nordeste 7 Nordeste 0 -- -- 89
2017-08-28 08:00:00 22.9 3 Norte 4 Norte 0 -- -- 87
2017-08-28 07:00:00 21.9 0 Calma 5 Noroeste 0 -- -- 88
2017-08-28 06:00:00 22.2 0 Calma 6 Noroeste 0 -- -- 87
2017-08-28 05:00:00 22.9 3 Norte 3 Noroeste 0 -- -- 87
2017-08-28 04:00:00 23.8 2 Noroeste 6 Norte 0 -- -- 86
2017-08-28 03:00:00 24.1 0 Calma 5 Oeste 0 -- -- 87
2017-08-28 02:00:00 24.2 3 Noroeste 4 Noroeste 0 -- -- 86
2017-08-28 01:00:00 24.8 2 Norte 6 Este 0 -- -- 85
2017-08-28 00:00:00 25.4 5 Este 8 Este 0 -- -- 82
2017-08-27 23:00:00 26.4 4 Nordeste 9 Este 0 -- -- 78
2017-08-27 22:00:00 26.9 6 Nordeste 13 Este 0 -- -- 72
2017-08-27 21:00:00 27.8 9 Nordeste 18 Este 0 -- -- 65
2017-08-27 20:00:00 29.1 8 Este 21 Este 0 -- -- 61
2017-08-27 19:00:00 31.2 9 Nordeste 18 Nordeste 0 -- -- 55
2017-08-27 18:00:00 32.1 6 Oeste 24 Sudoeste 0 -- -- 53
2017-08-27 17:00:00 33.8 11 Nordeste 22 Este 0 -- -- 50
2017-08-27 16:00:00 34.9 12 Este 41 Nordeste 0 -- -- 47
2017-08-27 15:00:00 35.7 9 Nordeste 19 Este 0 -- -- 41
2017-08-27 14:00:00 34 7 Nordeste 17 Este 0 -- -- 43
2017-08-27 13:00:00 32 6 Nordeste 19 Este 0 -- -- 50
2017-08-27 12:00:00 30.6 11 Este 21 Este 0 -- -- 59
2017-08-27 11:00:00 28.7 11 Nordeste 22 Este 0 -- -- 69
2017-08-27 10:00:00 26.4 13 Nordeste 23 Nordeste 0 -- -- 80
2017-08-27 09:00:00 24.8 7 Este 13 Este 0 -- -- 89
2017-08-27 08:00:00 22.9 5 Nordeste 8 Norte 0 -- -- 93
2017-08-27 07:00:00 21.9 3 Sudoeste 6 Norte 0 -- -- 93
2017-08-27 06:00:00 21.3 3 Sur 6 Sudeste 0 -- -- 91
2017-08-27 05:00:00 21.7 0 Calma 9 Norte 0 -- -- 90
2017-08-27 04:00:00 23.5 0 Calma 6 Nordeste 0 -- -- 91
2017-08-27 03:00:00 22.7 0 Calma 4 Este 0 -- -- 90
2017-08-27 02:00:00 22.6 2 Este 5 Sudoeste 0 -- -- 88
2017-08-27 01:00:00 23.2 3 Oeste 5 Oeste 0 -- -- 86
2017-08-27 00:00:00 24 3 Noroeste 4 Sudoeste 0 -- -- 86
2017-08-26 23:00:00 24.9 3 Sudeste 8 Este 0 -- -- 84
2017-08-26 22:00:00 25.7 6 Este 14 Este 0 -- -- 82
2017-08-26 21:00:00 26.8 9 Este 18 Este 0 -- -- 77
2017-08-26 20:00:00 29 10 Este 19 Este 0 -- -- 68
2017-08-26 19:00:00 31.4 10 Este 23 Nordeste 0 -- -- 57
2017-08-26 18:00:00 32.1 15 Nordeste 26 Este 0 -- -- 53
2017-08-26 17:00:00 33.9 15 Este 25 Este 0 -- -- 46
2017-08-26 16:00:00 34.7 10 Nordeste 22 Nordeste 0 -- -- 42
2017-08-26 15:00:00 34 9 Nordeste 20 Nordeste 0 -- -- 40
2017-08-26 14:00:00 33 9 Nordeste 22 Este 0 -- -- 41
2017-08-26 13:00:00 31.6 10 Este 23 Este 0 -- -- 48
2017-08-26 12:00:00 30.1 8 Este 16 Nordeste 0 -- -- 59
2017-08-26 11:00:00 27.4 4 Nordeste 13 Este 0 -- -- 70
2017-08-26 10:00:00 26 10 Este 19 Este 0 -- -- 75
2017-08-26 09:00:00 24.6 4 Nordeste 9 Nordeste 0 -- -- 83
2017-08-26 08:00:00 20.2 3 Noroeste 8 Noroeste 0 -- -- 88
2017-08-26 07:00:00 20.3 5 Norte 9 Noroeste 0 -- -- 91
2017-08-26 06:00:00 20.3 7 Norte 10 Noroeste 0 -- -- 91
2017-08-26 05:00:00 21 5 Norte 9 Nordeste 0 -- -- 91
2017-08-26 04:00:00 20.3 3 Norte 5 Norte 0 -- -- 89
2017-08-26 03:00:00 21 3 Norte 7 Este 0 -- -- 88
2017-08-26 02:00:00 21.9 4 Norte 7 Oeste 0 -- -- 88
2017-08-26 01:00:00 22.7 5 Noroeste 8 Noroeste 0 -- -- 87
2017-08-26 00:00:00 23.8 3 Norte 8 Este 0 -- -- 83
2017-08-25 23:00:00 24.9 3 Este 10 Este 0 -- -- 80
2017-08-25 22:00:00 26.2 6 Este 12 Este 0 -- -- 71
2017-08-25 21:00:00 27.5 8 Este 16 Nordeste 0 -- -- 65
2017-08-25 20:00:00 29.4 9 Nordeste 15 Nordeste 0 -- -- 56
2017-08-25 19:00:00 32.2 5 Nordeste 28 Nordeste 0 -- -- 52
2017-08-25 18:00:00 33.6 14 Nordeste 27 Nordeste 0 -- -- 46
2017-08-25 17:00:00 34 6 Noroeste 21 Sudoeste 0 -- -- 47
2017-08-25 16:00:00 34 8 Sudeste 24 Este 0 -- -- 37
2017-08-25 15:00:00 34.5 9 Sudeste 21 Sur 0 -- -- 35
2017-08-25 14:00:00 33.5 9 Sur 18 Sur 0 -- -- 38
2017-08-25 13:00:00 32.5 9 Sudeste 21 Sudeste 0 -- -- 40
2017-08-25 12:00:00 30.8 9 Este 19 Este 0 -- -- 50
2017-08-25 11:00:00 29.2 6 Este 16 Este 0 -- -- 55
2017-08-25 10:00:00 27.2 8 Este 15 Este 0 -- -- 69
2017-08-25 09:00:00 24.5 6 Nordeste 9 Nordeste 0 -- -- 72
2017-08-25 08:00:00 17.9 0 Calma 5 Noroeste 0 -- -- 70
2017-08-25 07:00:00 17.2 3 Norte 4 Noroeste 0 -- -- 68
2017-08-25 06:00:00 18.2 0 Calma 6 Noroeste 0 -- -- 65
2017-08-25 05:00:00 18.9 5 Noroeste 7 Noroeste 0 -- -- 64
2017-08-25 04:00:00 19.4 3 Noroeste 6 Norte 0 -- -- 65
2017-08-25 03:00:00 20.4 4 Norte 6 Norte 0 -- -- 68
2017-08-25 02:00:00 20.4 4 Norte 6 Norte 0 -- -- 66
2017-08-25 01:00:00 21.5 3 Norte 6 Norte 0 -- -- 63
2017-08-25 00:00:00 22.6 5 Norte 6 Norte 0 -- -- 63
2017-08-24 23:00:00 24.4 3 Nordeste 6 Nordeste 0 -- -- 66
2017-08-24 22:00:00 25.7 3 Nordeste 13 Sudeste 0 -- -- 52
2017-08-24 21:00:00 27.5 9 Sudeste 14 Sudoeste 0 -- -- 46
2017-08-24 20:00:00 30.7 9 Sur 20 Sur 0 -- -- 37
2017-08-24 19:00:00 32.3 14 Sur 26 Sur 0 -- -- 31
2017-08-24 18:00:00 34.1 10 Sur 24 Sudeste 0 -- -- 28
2017-08-24 17:00:00 34.6 11 Sur 24 Sudeste 0 -- -- 28
2017-08-24 16:00:00 34.9 14 Sur 26 Sudeste 0 -- -- 27
2017-08-24 15:00:00 34.4 14 Sur 25 Sur 0 -- -- 32
2017-08-24 14:00:00 33.6 8 Sudeste 19 Sudeste 0 -- -- 30
2017-08-24 13:00:00 32.4 9 Sudoeste 19 Este 0 -- -- 36
2017-08-24 12:00:00 30.6 5 Nordeste 15 Este 0 -- -- 41
2017-08-24 11:00:00 28.9 7 Este 14 Este 0 -- -- 53
2017-08-24 10:00:00 26.4 6 Este 12 Este 0 -- -- 69
2017-08-24 09:00:00 23 2 Este 4 Este 0 -- -- 70
2017-08-24 08:00:00 17.7 3 Sudoeste 6 Sudoeste 0 -- -- 89
2017-08-24 07:00:00 16.7 0 Calma 5 Norte 0 -- -- 87
2017-08-24 06:00:00 17.1 4 Norte 5 Norte 0 -- -- 87
2017-08-24 05:00:00 17.6 0 Calma 5 Noroeste 0 -- -- 85
2017-08-24 04:00:00 18.4 0 Calma 6 Noroeste 0 -- -- 85
2017-08-24 03:00:00 19.3 5 Noroeste 6 Noroeste 0 -- -- 84
2017-08-24 02:00:00 20.2 5 Noroeste 8 Sudoeste 0 -- -- 85
2017-08-24 01:00:00 21.5 0 Calma 6 Sur 0 -- -- 83
2017-08-24 00:00:00 22.5 5 Sur 6 Sur 0 -- -- 81